createdAt,value
2023-02-06T00:00:07.671Z,104175.53
2023-02-06T00:03:13.130Z,104169.63
2023-02-06T00:06:17.420Z,104165.84
2023-02-06T00:09:21.093Z,104169.56
2023-02-06T00:12:24.740Z,104165.09
2023-02-06T00:15:28.501Z,104157.06
2023-02-06T00:18:33.640Z,104159.94
2023-02-06T00:21:37.305Z,104155.94
2023-02-06T00:24:41.809Z,104158.22
2023-02-06T00:27:45.452Z,104166.41
2023-02-06T00:30:49.322Z,104161.56
2023-02-06T00:33:54.590Z,104168.72
2023-02-06T00:36:58.293Z,104168.81
2023-02-06T00:40:02.030Z,104166.16
2023-02-06T00:43:05.615Z,104164.72
2023-02-06T00:46:09.646Z,104166.31
2023-02-06T00:49:14.880Z,104166.06
2023-02-06T00:52:18.484Z,104161.00
2023-02-06T00:55:22.340Z,104149.72
2023-02-06T00:58:26.054Z,104150.63
2023-02-06T01:01:30.202Z,104152.41
2023-02-06T01:04:35.126Z,104153.66
2023-02-06T01:07:40.466Z,104165.63
2023-02-06T01:10:45.890Z,104155.34
2023-02-06T01:13:50.221Z,104161.84
2023-02-06T01:16:53.853Z,104146.84
2023-02-06T01:19:58.914Z,104151.69
2023-02-06T01:23:02.628Z,104156.91
2023-02-06T01:26:08.084Z,104161.03
2023-02-06T01:29:11.702Z,104153.44
2023-02-06T01:32:15.373Z,104166.66
2023-02-06T01:35:20.634Z,104160.34
2023-02-06T01:38:24.247Z,104160.69
2023-02-06T01:41:27.967Z,104156.22
2023-02-06T01:44:33.974Z,104154.53
2023-02-06T01:47:37.657Z,104148.28
2023-02-06T01:50:47.518Z,104143.00
2023-02-06T01:53:55.347Z,104150.03
2023-02-06T01:57:11.865Z,104146.38
2023-02-06T02:00:16.187Z,104155.81
2023-02-06T02:03:20.038Z,104158.91
2023-02-06T02:06:28.751Z,104168.88
2023-02-06T02:09:33.201Z,104163.78
2023-02-06T02:12:37.013Z,104158.06
2023-02-06T02:15:57.852Z,104154.38
2023-02-06T02:20:11.858Z,104154.16
2023-02-06T02:23:34.035Z,104154.78
2023-02-06T02:27:15.077Z,104154.47
2023-02-06T02:31:21.147Z,104162.00
2023-02-06T02:35:03.823Z,104142.53
2023-02-06T02:38:28.817Z,104137.94
2023-02-06T02:41:44.954Z,104133.81
2023-02-06T02:44:56.915Z,104134.13
2023-02-06T02:48:10.233Z,104140.16
2023-02-06T02:51:16.720Z,104141.97
2023-02-06T02:54:20.874Z,104140.16
2023-02-06T02:57:32.935Z,104145.66
2023-02-06T03:00:43.423Z,104146.34
2023-02-06T03:03:51.605Z,104152.41
2023-02-06T03:07:10.716Z,104158.53
2023-02-06T03:10:26.468Z,104160.31
2023-02-06T03:13:35.834Z,104168.25
2023-02-06T03:16:47.012Z,104163.44
2023-02-06T03:19:57.350Z,104161.88
2023-02-06T03:23:05.633Z,104167.03
2023-02-06T03:26:15.548Z,104167.47
2023-02-06T03:29:20.923Z,104169.13
2023-02-06T03:32:29.997Z,104172.41
2023-02-06T03:35:38.381Z,104184.56
2023-02-06T03:38:43.692Z,104180.13
2023-02-06T03:41:49.666Z,104172.09
2023-02-06T03:45:01.900Z,104161.56
2023-02-06T03:48:12.371Z,104155.53
2023-02-06T03:51:22.629Z,104148.25
2023-02-06T03:54:29.728Z,104155.63
2023-02-06T03:57:37.267Z,104163.59
2023-02-06T04:00:44.158Z,104161.22
2023-02-06T04:03:47.888Z,104166.38
2023-02-06T04:06:51.527Z,104173.44
2023-02-06T04:09:56.615Z,104178.47
2023-02-06T04:13:00.330Z,104177.66
2023-02-06T04:16:04.519Z,104167.72
2023-02-06T04:19:08.121Z,104167.47
2023-02-06T04:22:16.113Z,104179.66
2023-02-06T04:25:21.088Z,104170.16
2023-02-06T04:28:24.688Z,104168.81
2023-02-06T04:31:28.351Z,104171.03
2023-02-06T04:34:32.585Z,104175.28
2023-02-06T04:37:36.504Z,104174.25
2023-02-06T04:40:41.468Z,104164.28
2023-02-06T04:43:45.375Z,104158.78
2023-02-06T04:46:49.696Z,104156.03
2023-02-06T04:49:53.410Z,104147.75
2023-02-06T04:52:57.047Z,104140.78
2023-02-06T04:56:06.193Z,104138.25
2023-02-06T04:59:09.842Z,104124.47
2023-02-06T05:02:13.605Z,104113.97
2023-02-06T05:05:17.278Z,104112.50
2023-02-06T05:08:21.186Z,104119.66
2023-02-06T05:11:26.562Z,104108.94
2023-02-06T05:14:30.359Z,104105.44
2023-02-06T05:17:34.079Z,104102.97
2023-02-06T05:20:38.665Z,104105.53
2023-02-06T05:23:42.315Z,104107.13
2023-02-06T05:26:47.402Z,104104.56
2023-02-06T05:29:50.977Z,104108.72
2023-02-06T05:32:54.593Z,104115.56
2023-02-06T05:36:04.602Z,104115.34
2023-02-06T05:39:08.301Z,104100.88
2023-02-06T05:42:13.429Z,104105.91
2023-02-06T05:45:17.084Z,104108.50
2023-02-06T05:48:20.684Z,104112.28
2023-02-06T05:51:24.433Z,104114.44
2023-02-06T05:54:28.035Z,104114.34
2023-02-06T05:57:33.017Z,104110.88
2023-02-06T06:00:36.633Z,104113.38
2023-02-06T06:03:40.755Z,104103.06
2023-02-06T06:06:46.968Z,104105.22
2023-02-06T06:09:50.579Z,104104.63
2023-02-06T06:12:55.608Z,104096.00
2023-02-06T06:15:59.331Z,104107.19
2023-02-06T06:19:03.407Z,104113.84
2023-02-06T06:22:07.370Z,104112.03
2023-02-06T06:25:14.593Z,104111.94
2023-02-06T06:28:19.706Z,104116.13
2023-02-06T06:31:23.603Z,104128.34
2023-02-06T06:34:27.485Z,104117.81
2023-02-06T06:37:31.169Z,104119.59
2023-02-06T06:40:34.888Z,104116.81
2023-02-06T06:43:40.859Z,104121.56
2023-02-06T06:46:44.541Z,104121.75
2023-02-06T06:49:48.215Z,104133.00
2023-02-06T06:52:51.972Z,104125.16
2023-02-06T06:55:55.644Z,104122.97
2023-02-06T06:59:00.610Z,104117.88
2023-02-06T07:02:04.692Z,104124.56
2023-02-06T07:05:09.139Z,104138.03
2023-02-06T07:08:12.816Z,104140.00
2023-02-06T07:11:18.599Z,104130.09
2023-02-06T07:14:23.749Z,104132.25
2023-02-06T07:17:27.628Z,104132.25
2023-02-06T07:20:31.281Z,104137.59
2023-02-06T07:23:34.882Z,104140.19
2023-02-06T07:26:38.598Z,104143.78
2023-02-06T07:29:43.744Z,104146.53
2023-02-06T07:32:47.370Z,104143.34
2023-02-06T07:35:51.018Z,104141.75
2023-02-06T07:38:54.749Z,104142.56
2023-02-06T07:41:58.425Z,104142.25
2023-02-06T07:45:03.524Z,104146.50
2023-02-06T07:48:08.530Z,104148.97
2023-02-06T07:51:12.251Z,104153.44
2023-02-06T07:54:16.234Z,104152.56
2023-02-06T07:57:22.778Z,104157.22
2023-02-06T08:00:28.218Z,104156.94
2023-02-06T08:03:32.229Z,104170.41
2023-02-06T08:06:35.954Z,104165.41
2023-02-06T08:09:39.529Z,104168.09
2023-02-06T08:12:43.153Z,104165.31
2023-02-06T08:15:48.161Z,104156.19
2023-02-06T08:18:52.386Z,104153.78
2023-02-06T08:21:56.032Z,104160.13
2023-02-06T08:24:59.633Z,104165.66
2023-02-06T08:28:03.260Z,104176.16
2023-02-06T08:31:13.876Z,104162.63
2023-02-06T08:34:17.796Z,104165.00
2023-02-06T08:37:21.410Z,104160.66
2023-02-06T08:40:25.028Z,104152.31
2023-02-06T08:43:29.597Z,104155.81
2023-02-06T08:46:36.329Z,104154.50
2023-02-06T08:49:40.164Z,104159.75
2023-02-06T08:52:43.761Z,104158.97
2023-02-06T08:55:47.688Z,104159.06
2023-02-06T08:58:51.275Z,104161.22
2023-02-06T09:01:56.362Z,104151.84
2023-02-06T09:05:00.053Z,104157.38
2023-02-06T09:08:03.738Z,104157.72
2023-02-06T09:11:09.124Z,104162.91
2023-02-06T09:14:18.301Z,104164.66
2023-02-06T09:17:23.360Z,104163.66
2023-02-06T09:20:27.432Z,104157.22
2023-02-06T09:23:31.017Z,104156.88
2023-02-06T09:26:44.852Z,104167.94
2023-02-06T09:29:57.285Z,104163.22
2023-02-06T09:33:02.390Z,104153.50
2023-02-06T09:36:09.377Z,104147.78
2023-02-06T09:39:13.055Z,104151.53
2023-02-06T09:42:27.940Z,104150.56
2023-02-06T09:45:34.605Z,104151.88
2023-02-06T09:48:44.133Z,104152.13
2023-02-06T09:52:13.126Z,104156.59
2023-02-06T09:55:25.978Z,104159.47
2023-02-06T09:58:44.537Z,104152.50
2023-02-06T10:02:02.404Z,104151.16
2023-02-06T10:05:23.402Z,104154.53
2023-02-06T10:08:38.405Z,104145.66
2023-02-06T10:11:48.390Z,104140.66
2023-02-06T10:14:57.957Z,104132.13
2023-02-06T10:18:14.750Z,104139.88
2023-02-06T10:21:31.584Z,104145.22
2023-02-06T10:24:44.722Z,104150.56
2023-02-06T10:27:55.854Z,104153.75
2023-02-06T10:31:26.589Z,104147.16
2023-02-06T10:34:52.175Z,104159.31
2023-02-06T10:38:32.282Z,104161.72
2023-02-06T10:41:46.058Z,104161.81
2023-02-06T10:45:09.805Z,104170.31
2023-02-06T10:48:31.749Z,104168.56
2023-02-06T10:51:42.574Z,104152.16
2023-02-06T10:54:54.547Z,104160.16
2023-02-06T10:58:11.868Z,104146.25
2023-02-06T11:01:26.148Z,104143.22
2023-02-06T11:04:38.790Z,104136.25
2023-02-06T11:07:46.835Z,104134.03
2023-02-06T11:10:52.636Z,104130.47
2023-02-06T11:14:02.625Z,104130.75
2023-02-06T11:17:06.326Z,104135.88
2023-02-06T11:20:21.949Z,104153.25
2023-02-06T11:23:28.645Z,104147.06
2023-02-06T11:26:33.842Z,104141.00
2023-02-06T11:29:47.350Z,104133.94
2023-02-06T11:33:03.625Z,104129.59
2023-02-06T11:36:24.496Z,104122.72
2023-02-06T11:39:32.220Z,104119.66
2023-02-06T11:42:38.086Z,104115.22
2023-02-06T11:45:42.032Z,104115.34
2023-02-06T11:48:48.994Z,104118.50
2023-02-06T11:51:55.386Z,104113.19
2023-02-06T11:55:02.583Z,104118.66
2023-02-06T11:58:21.643Z,104116.41
2023-02-06T12:01:25.941Z,104119.34
2023-02-06T12:04:38.570Z,104118.59
2023-02-06T12:07:48.113Z,104119.06
2023-02-06T12:11:02.841Z,104108.41
2023-02-06T12:14:19.226Z,104108.81
2023-02-06T12:17:33.014Z,104099.53
2023-02-06T12:20:48.228Z,104090.56
2023-02-06T12:23:57.506Z,104089.31
2023-02-06T12:27:12.294Z,104088.13
2023-02-06T12:30:34.266Z,104085.84
2023-02-06T12:33:45.930Z,104086.72
2023-02-06T12:37:00.492Z,104087.88
2023-02-06T12:40:04.548Z,104084.94
2023-02-06T12:43:12.855Z,104082.06
2023-02-06T12:46:25.172Z,104086.34
2023-02-06T12:49:36.058Z,104079.16
2023-02-06T12:52:44.931Z,104088.44
2023-02-06T12:55:59.043Z,104089.25
2023-02-06T12:59:57.459Z,104092.44
2023-02-06T13:03:30.979Z,104077.59
2023-02-06T13:06:49.428Z,104079.91
2023-02-06T13:10:02.573Z,104077.16
2023-02-06T13:13:07.183Z,104078.06
2023-02-06T13:16:11.470Z,104069.34
2023-02-06T13:19:29.359Z,104064.22
2023-02-06T13:22:49.469Z,104069.50
2023-02-06T13:25:53.724Z,104063.66
2023-02-06T13:29:01.346Z,104069.94
2023-02-06T13:32:45.293Z,104072.16
2023-02-06T13:36:02.499Z,104080.91
2023-02-06T13:39:23.044Z,104075.06
2023-02-06T13:42:42.325Z,104085.81
2023-02-06T13:45:54.527Z,104084.00
2023-02-06T13:49:25.314Z,104078.38
2023-02-06T13:52:45.902Z,104080.41
2023-02-06T13:56:08.598Z,104082.06
2023-02-06T13:59:19.367Z,104091.31
2023-02-06T14:02:31.085Z,104095.66
2023-02-06T14:05:49.654Z,104092.41
2023-02-06T14:09:11.150Z,104088.88
2023-02-06T14:12:35.438Z,104086.00
2023-02-06T14:16:04.803Z,104082.69
2023-02-06T14:19:31.489Z,104078.00
2023-02-06T14:22:45.583Z,104087.13
2023-02-06T14:26:11.257Z,104097.13
2023-02-06T14:29:41.205Z,104104.00
2023-02-06T14:32:57.874Z,104100.44
2023-02-06T14:36:18.283Z,104105.25
2023-02-06T14:39:48.918Z,104100.81
2023-02-06T14:42:59.373Z,104093.19
2023-02-06T14:46:08.512Z,104101.81
2023-02-06T14:49:20.223Z,104101.94
2023-02-06T14:52:28.424Z,104097.78
2023-02-06T14:55:38.690Z,104094.56
2023-02-06T14:58:46.560Z,104095.53
2023-02-06T15:01:55.288Z,104088.16
2023-02-06T15:05:02.043Z,104081.59
2023-02-06T15:08:07.835Z,104073.84
2023-02-06T15:11:22.724Z,104078.06
2023-02-06T15:14:31.814Z,104072.44
2023-02-06T15:17:35.475Z,104080.28
2023-02-06T15:20:42.663Z,104076.63
2023-02-06T15:24:05.728Z,104070.38
2023-02-06T15:27:18.421Z,104072.03
2023-02-06T15:30:30.540Z,104078.00
2023-02-06T15:33:36.072Z,104076.94
2023-02-06T15:36:40.947Z,104076.81
2023-02-06T15:39:45.414Z,104078.31
2023-02-06T15:42:51.349Z,104069.44
2023-02-06T15:46:08.031Z,104066.59
2023-02-06T15:49:20.183Z,104067.00
2023-02-06T15:52:39.507Z,104062.50
2023-02-06T15:55:52.299Z,104061.19
2023-02-06T15:58:59.813Z,104061.59
2023-02-06T16:02:05.839Z,104058.69
2023-02-06T16:05:33.035Z,104063.44
2023-02-06T16:08:38.150Z,104060.25
2023-02-06T16:11:49.196Z,104066.66
2023-02-06T16:14:57.545Z,104066.19
2023-02-06T16:18:28.091Z,104086.94
2023-02-06T16:21:35.544Z,104078.06
2023-02-06T16:24:39.304Z,104066.41
2023-02-06T16:27:46.777Z,104080.91
2023-02-06T16:30:58.203Z,104073.06
2023-02-06T16:34:04.295Z,104077.94
2023-02-06T16:37:14.000Z,104097.41
2023-02-06T16:40:18.614Z,104097.41
2023-02-06T16:43:25.338Z,104100.44
2023-02-06T16:46:30.674Z,104101.00
2023-02-06T16:49:35.879Z,104105.72
2023-02-06T16:52:42.974Z,104110.44
2023-02-06T16:55:47.013Z,104105.25
2023-02-06T16:58:51.486Z,104110.09
2023-02-06T17:01:55.750Z,104116.81
2023-02-06T17:05:00.870Z,104123.53
2023-02-06T17:08:11.163Z,104118.19
2023-02-06T17:11:15.176Z,104124.50
2023-02-06T17:14:18.994Z,104120.75
2023-02-06T17:17:24.423Z,104124.72
2023-02-06T17:20:35.436Z,104125.53
2023-02-06T17:23:39.453Z,104121.88
2023-02-06T17:26:43.191Z,104137.88
2023-02-06T17:29:47.944Z,104147.38
2023-02-06T17:32:51.602Z,104147.00
2023-02-06T17:35:57.035Z,104139.00
2023-02-06T17:39:02.502Z,104138.75
2023-02-06T17:42:06.354Z,104144.47
2023-02-06T17:45:11.411Z,104139.94
2023-02-06T17:48:15.715Z,104152.69
2023-02-06T17:51:21.082Z,104149.13
2023-02-06T17:54:24.920Z,104157.53
2023-02-06T17:57:30.846Z,104153.84
2023-02-06T18:00:35.578Z,104161.44
2023-02-06T18:03:39.706Z,104151.63
2023-02-06T18:06:44.722Z,104153.81
2023-02-06T18:09:48.821Z,104144.88
2023-02-06T18:12:52.743Z,104153.25
2023-02-06T18:15:58.949Z,104150.25
2023-02-06T18:19:03.111Z,104145.59
2023-02-06T18:22:09.017Z,104154.06
2023-02-06T18:25:16.119Z,104158.25
2023-02-06T18:28:20.113Z,104152.09
2023-02-06T18:31:28.790Z,104150.94
2023-02-06T18:34:33.688Z,104148.63
2023-02-06T18:37:38.872Z,104156.53
2023-02-06T18:40:45.677Z,104157.34
2023-02-06T18:43:48.339Z,104171.31
2023-02-06T18:46:52.491Z,104164.47
2023-02-06T18:49:56.396Z,104162.09
2023-02-06T18:53:01.571Z,104162.13
2023-02-06T18:56:05.349Z,104156.69
2023-02-06T18:59:14.712Z,104163.31
2023-02-06T19:02:18.520Z,104160.50
2023-02-06T19:05:22.679Z,104160.59
2023-02-06T19:08:27.946Z,104154.72
2023-02-06T19:11:31.870Z,104155.31
2023-02-06T19:14:35.865Z,104155.25
2023-02-06T19:17:40.218Z,104164.06
2023-02-06T19:20:44.189Z,104160.22
2023-02-06T19:23:58.117Z,104157.25
2023-02-06T19:27:03.834Z,104155.75
2023-02-06T19:30:10.146Z,104167.09
2023-02-06T19:33:13.738Z,104166.69
2023-02-06T19:36:19.982Z,104164.72
2023-02-06T19:39:26.070Z,104166.88
2023-02-06T19:42:29.755Z,104169.34
2023-02-06T19:45:38.571Z,104169.97
2023-02-06T19:48:45.613Z,104169.28
2023-02-06T19:51:49.528Z,104173.28
2023-02-06T19:54:54.720Z,104174.78
2023-02-06T19:57:58.471Z,104181.94
2023-02-06T20:01:09.559Z,104185.09
2023-02-06T20:04:13.294Z,104181.22
2023-02-06T20:07:16.965Z,104189.09
2023-02-06T20:10:22.205Z,104185.00
2023-02-06T20:13:25.873Z,104180.25
2023-02-06T20:16:33.132Z,104191.84
2023-02-06T20:19:37.239Z,104197.19
2023-02-06T20:22:41.189Z,104188.97
2023-02-06T20:25:48.625Z,104193.81
2023-02-06T20:28:52.861Z,104190.16
2023-02-06T20:31:58.329Z,104193.44
2023-02-06T20:35:02.096Z,104193.53
2023-02-06T20:38:05.853Z,104199.38
2023-02-06T20:41:11.962Z,104200.84
2023-02-06T20:44:15.896Z,104212.88
2023-02-06T20:47:19.514Z,104213.25
2023-02-06T20:50:23.195Z,104213.88
2023-02-06T20:53:27.255Z,104213.34
2023-02-06T20:56:32.324Z,104215.25
2023-02-06T20:59:36.404Z,104213.25
2023-02-06T21:02:40.127Z,104206.97
2023-02-06T21:05:43.869Z,104211.25
2023-02-06T21:08:50.230Z,104216.03
2023-02-06T21:11:55.458Z,104215.59
2023-02-06T21:14:59.067Z,104210.81
2023-02-06T21:18:02.742Z,104211.19
2023-02-06T21:21:10.571Z,104213.25
2023-02-06T21:24:14.796Z,104207.69
2023-02-06T21:27:19.811Z,104215.50
2023-02-06T21:30:23.587Z,104214.44
2023-02-06T21:33:27.253Z,104215.09
2023-02-06T21:36:32.225Z,104219.81
2023-02-06T21:39:38.789Z,104222.19
2023-02-06T21:42:44.140Z,104219.41
2023-02-06T21:45:49.610Z,104219.19
2023-02-06T21:48:54.436Z,104220.34
2023-02-06T21:52:00.110Z,104219.31
2023-02-06T21:55:05.419Z,104231.13
2023-02-06T21:58:14.672Z,104221.19
2023-02-06T22:01:21.002Z,104231.38
2023-02-06T22:04:25.031Z,104237.50
2023-02-06T22:07:28.738Z,104232.94
2023-02-06T22:10:33.466Z,104242.81
2023-02-06T22:13:38.685Z,104248.16
2023-02-06T22:16:43.335Z,104239.88
2023-02-06T22:19:48.821Z,104245.03
2023-02-06T22:22:54.698Z,104245.94
2023-02-06T22:25:58.473Z,104254.25
2023-02-06T22:29:26.330Z,104247.97
2023-02-06T22:32:56.487Z,104255.16
2023-02-06T22:36:34.752Z,104259.16
2023-02-06T22:40:21.819Z,104262.03
2023-02-06T22:43:33.943Z,104262.28
2023-02-06T22:46:47.815Z,104259.25
2023-02-06T22:49:57.286Z,104261.72
2023-02-06T22:53:36.742Z,104262.06
2023-02-06T22:56:45.712Z,104262.28
2023-02-06T22:59:49.804Z,104264.97
2023-02-06T23:03:22.606Z,104264.59
2023-02-06T23:06:55.163Z,104256.25
2023-02-06T23:10:31.127Z,104255.69
2023-02-06T23:14:08.769Z,104254.91
2023-02-06T23:17:37.417Z,104246.06
2023-02-06T23:20:53.907Z,104256.66
2023-02-06T23:23:59.678Z,104248.53
2023-02-06T23:27:03.430Z,104248.53
2023-02-06T23:30:08.312Z,104251.66
2023-02-06T23:33:12.631Z,104243.94
2023-02-06T23:36:20.556Z,104236.47
2023-02-06T23:39:24.304Z,104237.56
2023-02-06T23:42:29.606Z,104236.56
2023-02-06T23:45:33.852Z,104233.78
2023-02-06T23:48:38.370Z,104229.00
2023-02-06T23:51:43.571Z,104241.38
2023-02-06T23:54:47.277Z,104236.38
2023-02-06T23:57:50.967Z,104237.50
